sensor_id;sensor_type;location;lat;lon;timestamp;pressure;altitude;pressure_sealevel;temperature;humidity
77299;BME280;66361;52.034;20.656;2024-01-11T00:00:42;100847.69;;;-7.01;70.81
77299;BME280;66361;52.034;20.656;2024-01-11T00:04:47;100839.50;;;-6.93;71.49
77299;BME280;66361;52.034;20.656;2024-01-11T00:08:31;100835.53;;;-6.84;71.54
77299;BME280;66361;52.034;20.656;2024-01-11T00:12:15;100808.09;;;-6.87;71.16
77299;BME280;66361;52.034;20.656;2024-01-11T00:15:59;100801.13;;;-6.69;71.38
77299;BME280;66361;52.034;20.656;2024-01-11T00:19:43;100794.53;;;-6.62;71.85
77299;BME280;66361;52.034;20.656;2024-01-11T00:23:28;100786.78;;;-6.64;71.83
77299;BME280;66361;52.034;20.656;2024-01-11T00:27:12;100786.84;;;-6.62;71.64
77299;BME280;66361;52.034;20.656;2024-01-11T00:30:56;100778.31;;;-6.61;71.98
77299;BME280;66361;52.034;20.656;2024-01-11T00:34:42;100756.50;;;-6.50;72.13
77299;BME280;66361;52.034;20.656;2024-01-11T00:38:26;100762.63;;;-6.47;72.02
77299;BME280;66361;52.034;20.656;2024-01-11T00:42:11;100772.84;;;-6.48;72.26
77299;BME280;66361;52.034;20.656;2024-01-11T00:45:55;100776.06;;;-6.54;72.14
77299;BME280;66361;52.034;20.656;2024-01-11T00:49:39;100774.53;;;-6.49;72.28
77299;BME280;66361;52.034;20.656;2024-01-11T00:53:23;100772.94;;;-6.45;72.28
77299;BME280;66361;52.034;20.656;2024-01-11T00:57:07;100779.72;;;-6.47;72.51
77299;BME280;66361;52.034;20.656;2024-01-11T01:00:53;100786.53;;;-6.48;72.47
77299;BME280;66361;52.034;20.656;2024-01-11T01:04:37;100772.25;;;-6.41;72.91
77299;BME280;66361;52.034;20.656;2024-01-11T01:08:22;100782.34;;;-6.45;72.83
77299;BME280;66361;52.034;20.656;2024-01-11T01:12:06;100797.91;;;-6.41;73.03
77299;BME280;66361;52.034;20.656;2024-01-11T01:15:51;100810.00;;;-6.37;72.93
77299;BME280;66361;52.034;20.656;2024-01-11T01:19:35;100796.97;;;-6.43;73.17
77299;BME280;66361;52.034;20.656;2024-01-11T01:23:19;100788.38;;;-6.43;72.97
77299;BME280;66361;52.034;20.656;2024-01-11T01:27:03;100779.59;;;-6.50;73.12
77299;BME280;66361;52.034;20.656;2024-01-11T01:30:47;100758.19;;;-6.51;73.70
77299;BME280;66361;52.034;20.656;2024-01-11T01:34:33;100771.91;;;-6.50;73.54
77299;BME280;66361;52.034;20.656;2024-01-11T01:38:17;100782.00;;;-6.55;73.93
77299;BME280;66361;52.034;20.656;2024-01-11T01:42:01;100775.91;;;-6.57;74.10
77299;BME280;66361;52.034;20.656;2024-01-11T01:45:45;100787.13;;;-6.55;74.42
77299;BME280;66361;52.034;20.656;2024-01-11T01:49:29;100790.63;;;-6.53;74.44
77299;BME280;66361;52.034;20.656;2024-01-11T01:53:14;100799.44;;;-6.46;74.53
77299;BME280;66361;52.034;20.656;2024-01-11T01:57:00;100791.66;;;-6.48;74.63
77299;BME280;66361;52.034;20.656;2024-01-11T02:00:47;100770.19;;;-6.50;74.60
77299;BME280;66361;52.034;20.656;2024-01-11T02:04:32;100769.47;;;-6.47;74.37
77299;BME280;66361;52.034;20.656;2024-01-11T02:08:19;100745.44;;;-6.49;74.68
77299;BME280;66361;52.034;20.656;2024-01-11T02:12:05;100738.06;;;-6.40;74.72
77299;BME280;66361;52.034;20.656;2024-01-11T02:15:53;100738.75;;;-6.44;75.00
77299;BME280;66361;52.034;20.656;2024-01-11T02:19:37;100739.91;;;-6.36;74.71
77299;BME280;66361;52.034;20.656;2024-01-11T02:23:24;100735.94;;;-6.28;74.96
77299;BME280;66361;52.034;20.656;2024-01-11T02:27:15;100748.81;;;-6.26;74.72
77299;BME280;66361;52.034;20.656;2024-01-11T02:31:00;100755.81;;;-6.22;74.71
77299;BME280;66361;52.034;20.656;2024-01-11T02:34:45;100754.66;;;-6.30;74.55
77299;BME280;66361;52.034;20.656;2024-01-11T02:38:29;100736.06;;;-6.25;74.89
77299;BME280;66361;52.034;20.656;2024-01-11T02:42:15;100725.78;;;-6.25;75.22
77299;BME280;66361;52.034;20.656;2024-01-11T02:45:59;100734.09;;;-6.32;74.98
77299;BME280;66361;52.034;20.656;2024-01-11T02:49:45;100727.34;;;-6.28;74.87
77299;BME280;66361;52.034;20.656;2024-01-11T02:53:29;100719.88;;;-6.22;75.14
77299;BME280;66361;52.034;20.656;2024-01-11T02:57:18;100728.97;;;-6.32;74.90
77299;BME280;66361;52.034;20.656;2024-01-11T03:01:02;100741.41;;;-6.19;75.10
77299;BME280;66361;52.034;20.656;2024-01-11T03:04:46;100709.53;;;-6.00;74.40
77299;BME280;66361;52.034;20.656;2024-01-11T03:08:31;100701.00;;;-5.99;74.33
77299;BME280;66361;52.034;20.656;2024-01-11T03:12:15;100683.16;;;-5.96;73.84
77299;BME280;66361;52.034;20.656;2024-01-11T03:16:00;100699.53;;;-5.92;73.30
77299;BME280;66361;52.034;20.656;2024-01-11T03:19:45;100727.34;;;-5.79;73.74
77299;BME280;66361;52.034;20.656;2024-01-11T03:23:29;100727.72;;;-5.69;73.36
77299;BME280;66361;52.034;20.656;2024-01-11T03:27:13;100719.44;;;-5.60;72.76
77299;BME280;66361;52.034;20.656;2024-01-11T03:30:58;100707.53;;;-5.58;72.62
77299;BME280;66361;52.034;20.656;2024-01-11T03:34:43;100720.94;;;-5.66;72.70
77299;BME280;66361;52.034;20.656;2024-01-11T03:38:27;100699.41;;;-5.70;72.66
77299;BME280;66361;52.034;20.656;2024-01-11T03:42:12;100710.41;;;-5.74;72.59
77299;BME280;66361;52.034;20.656;2024-01-11T03:45:56;100708.34;;;-5.84;73.05
77299;BME280;66361;52.034;20.656;2024-01-11T03:49:40;100698.75;;;-5.90;72.98
77299;BME280;66361;52.034;20.656;2024-01-11T03:53:25;100691.00;;;-5.91;73.39
77299;BME280;66361;52.034;20.656;2024-01-11T03:57:09;100672.72;;;-6.00;73.73
77299;BME280;66361;52.034;20.656;2024-01-11T04:00:55;100679.13;;;-6.13;74.20
77299;BME280;66361;52.034;20.656;2024-01-11T04:04:40;100661.72;;;-6.22;74.49
77299;BME280;66361;52.034;20.656;2024-01-11T04:08:26;100643.50;;;-6.29;75.17
77299;BME280;66361;52.034;20.656;2024-01-11T04:12:10;100631.72;;;-6.24;75.68
77299;BME280;66361;52.034;20.656;2024-01-11T04:15:54;100633.28;;;-6.28;75.81
77299;BME280;66361;52.034;20.656;2024-01-11T04:19:39;100616.25;;;-6.26;76.18
77299;BME280;66361;52.034;20.656;2024-01-11T04:23:23;100612.69;;;-6.29;76.84
77299;BME280;66361;52.034;20.656;2024-01-11T04:27:10;100662.50;;;-6.24;76.87
77299;BME280;66361;52.034;20.656;2024-01-11T04:30:56;100633.53;;;-6.20;77.06
77299;BME280;66361;52.034;20.656;2024-01-11T04:34:40;100647.13;;;-6.23;77.37
77299;BME280;66361;52.034;20.656;2024-01-11T04:38:24;100657.59;;;-6.18;77.53
77299;BME280;66361;52.034;20.656;2024-01-11T04:42:10;100653.31;;;-6.18;77.84
77299;BME280;66361;52.034;20.656;2024-01-11T04:45:54;100643.94;;;-6.17;78.33
77299;BME280;66361;52.034;20.656;2024-01-11T04:49:38;100647.41;;;-6.15;78.69
77299;BME280;66361;52.034;20.656;2024-01-11T04:53:25;100637.19;;;-6.14;79.09
77299;BME280;66361;52.034;20.656;2024-01-11T04:57:10;100634.56;;;-6.15;79.65
77299;BME280;66361;52.034;20.656;2024-01-11T05:00:54;100641.56;;;-6.11;79.82
77299;BME280;66361;52.034;20.656;2024-01-11T05:04:38;100645.72;;;-6.15;79.95
77299;BME280;66361;52.034;20.656;2024-01-11T05:08:22;100641.50;;;-6.13;80.52
77299;BME280;66361;52.034;20.656;2024-01-11T05:12:07;100636.31;;;-6.14;80.68
77299;BME280;66361;52.034;20.656;2024-01-11T05:15:52;100642.44;;;-6.11;80.94
77299;BME280;66361;52.034;20.656;2024-01-11T05:19:39;100623.66;;;-6.10;81.27
77299;BME280;66361;52.034;20.656;2024-01-11T05:23:23;100630.56;;;-6.07;81.68
77299;BME280;66361;52.034;20.656;2024-01-11T05:27:07;100620.41;;;-6.04;81.83
77299;BME280;66361;52.034;20.656;2024-01-11T05:30:53;100618.78;;;-6.02;82.36
77299;BME280;66361;52.034;20.656;2024-01-11T05:34:37;100619.66;;;-6.00;82.55
77299;BME280;66361;52.034;20.656;2024-01-11T05:38:21;100618.97;;;-5.96;82.91
77299;BME280;66361;52.034;20.656;2024-01-11T05:42:06;100605.34;;;-5.93;83.19
77299;BME280;66361;52.034;20.656;2024-01-11T05:45:50;100590.91;;;-5.90;83.34
77299;BME280;66361;52.034;20.656;2024-01-11T05:49:35;100588.41;;;-5.88;83.64
77299;BME280;66361;52.034;20.656;2024-01-11T05:53:19;100583.44;;;-5.82;83.49
77299;BME280;66361;52.034;20.656;2024-01-11T05:57:04;100579.25;;;-5.80;83.74
77299;BME280;66361;52.034;20.656;2024-01-11T06:00:48;100558.78;;;-5.77;84.49
77299;BME280;66361;52.034;20.656;2024-01-11T06:04:32;100576.75;;;-5.77;84.51
77299;BME280;66361;52.034;20.656;2024-01-11T06:08:18;100576.03;;;-5.73;84.78
77299;BME280;66361;52.034;20.656;2024-01-11T06:12:02;100561.53;;;-5.71;84.94
77299;BME280;66361;52.034;20.656;2024-01-11T06:15:46;100551.38;;;-5.68;85.14
77299;BME280;66361;52.034;20.656;2024-01-11T06:19:29;100544.00;;;-5.56;84.88
77299;BME280;66361;52.034;20.656;2024-01-11T06:23:13;100533.66;;;-5.59;85.40
77299;BME280;66361;52.034;20.656;2024-01-11T06:27:02;100527.66;;;-5.59;85.61
77299;BME280;66361;52.034;20.656;2024-01-11T06:30:50;100532.03;;;-5.55;85.63
77299;BME280;66361;52.034;20.656;2024-01-11T06:34:36;100521.00;;;-5.53;85.63
77299;BME280;66361;52.034;20.656;2024-01-11T06:38:24;100528.06;;;-5.46;85.83
77299;BME280;66361;52.034;20.656;2024-01-11T06:42:09;100529.88;;;-5.42;85.89
77299;BME280;66361;52.034;20.656;2024-01-11T06:45:53;100535.22;;;-5.36;85.95
77299;BME280;66361;52.034;20.656;2024-01-11T06:49:38;100523.31;;;-5.32;85.72
77299;BME280;66361;52.034;20.656;2024-01-11T06:53:23;100519.91;;;-5.31;85.99
77299;BME280;66361;52.034;20.656;2024-01-11T06:57:08;100507.94;;;-5.31;86.17
77299;BME280;66361;52.034;20.656;2024-01-11T07:00:52;100496.84;;;-5.28;86.15
77299;BME280;66361;52.034;20.656;2024-01-11T07:04:36;100510.72;;;-5.23;86.08
77299;BME280;66361;52.034;20.656;2024-01-11T07:08:20;100500.56;;;-5.18;86.39
77299;BME280;66361;52.034;20.656;2024-01-11T07:12:05;100500.66;;;-5.15;86.20
77299;BME280;66361;52.034;20.656;2024-01-11T07:15:51;100505.13;;;-5.08;86.38
77299;BME280;66361;52.034;20.656;2024-01-11T07:19:35;100505.19;;;-5.05;86.86
77299;BME280;66361;52.034;20.656;2024-01-11T07:23:20;100494.19;;;-5.01;86.60
77299;BME280;66361;52.034;20.656;2024-01-11T07:27:04;100495.16;;;-4.96;86.66
77299;BME280;66361;52.034;20.656;2024-01-11T07:30:48;100482.41;;;-4.93;86.91
77299;BME280;66361;52.034;20.656;2024-01-11T07:34:33;100501.38;;;-4.88;86.90
77299;BME280;66361;52.034;20.656;2024-01-11T07:38:19;100499.06;;;-4.77;86.96
77299;BME280;66361;52.034;20.656;2024-01-11T07:42:03;100504.56;;;-4.64;86.98
77299;BME280;66361;52.034;20.656;2024-01-11T07:45:47;100499.56;;;-4.58;86.80
77299;BME280;66361;52.034;20.656;2024-01-11T07:49:32;100489.34;;;-4.55;86.71
77299;BME280;66361;52.034;20.656;2024-01-11T07:53:16;100492.78;;;-4.56;86.97
77299;BME280;66361;52.034;20.656;2024-01-11T07:57:00;100498.88;;;-4.51;87.03
77299;BME280;66361;52.034;20.656;2024-01-11T08:00:45;100479.22;;;-4.48;86.99
77299;BME280;66361;52.034;20.656;2024-01-11T08:04:34;100488.66;;;-4.49;86.74
77299;BME280;66361;52.034;20.656;2024-01-11T08:08:18;100499.13;;;-4.40;87.21
77299;BME280;66361;52.034;20.656;2024-01-11T08:12:02;100511.38;;;-4.31;86.88
77299;BME280;66361;52.034;20.656;2024-01-11T08:15:49;100508.78;;;-4.31;87.09
77299;BME280;66361;52.034;20.656;2024-01-11T08:19:34;100519.19;;;-4.28;86.98
77299;BME280;66361;52.034;20.656;2024-01-11T08:23:18;100525.31;;;-4.23;86.76
77299;BME280;66361;52.034;20.656;2024-01-11T08:27:03;100529.75;;;-4.16;87.05
77299;BME280;66361;52.034;20.656;2024-01-11T08:30:48;100521.28;;;-4.12;87.60
77299;BME280;66361;52.034;20.656;2024-01-11T08:34:37;100510.31;;;-4.03;87.58
77299;BME280;66361;52.034;20.656;2024-01-11T08:38:23;100497.56;;;-3.99;87.59
77299;BME280;66361;52.034;20.656;2024-01-11T08:42:07;100508.00;;;-3.93;87.76
77299;BME280;66361;52.034;20.656;2024-01-11T08:45:51;100512.38;;;-3.89;87.49
77299;BME280;66361;52.034;20.656;2024-01-11T08:49:40;100506.38;;;-3.88;86.89
77299;BME280;66361;52.034;20.656;2024-01-11T08:53:24;100527.09;;;-3.85;87.61
77299;BME280;66361;52.034;20.656;2024-01-11T08:57:09;100520.34;;;-3.78;87.18
77299;BME280;66361;52.034;20.656;2024-01-11T09:00:53;100529.78;;;-3.79;87.13
77299;BME280;66361;52.034;20.656;2024-01-11T09:04:39;100517.00;;;-3.76;87.16
77299;BME280;66361;52.034;20.656;2024-01-11T09:08:25;100533.41;;;-3.71;87.51
77299;BME280;66361;52.034;20.656;2024-01-11T09:12:09;100515.44;;;-3.67;87.52
77299;BME280;66361;52.034;20.656;2024-01-11T09:15:53;100525.91;;;-3.61;87.30
77299;BME280;66361;52.034;20.656;2024-01-11T09:19:38;100513.81;;;-3.64;86.73
77299;BME280;66361;52.034;20.656;2024-01-11T09:23:24;100502.66;;;-3.63;87.28
77299;BME280;66361;52.034;20.656;2024-01-11T09:27:08;100492.47;;;-3.57;87.11
77299;BME280;66361;52.034;20.656;2024-01-11T09:30:52;100501.09;;;-3.56;86.86
77299;BME280;66361;52.034;20.656;2024-01-11T09:34:36;100485.66;;;-3.55;87.12
77299;BME280;66361;52.034;20.656;2024-01-11T09:38:20;100480.66;;;-3.47;87.21
77299;BME280;66361;52.034;20.656;2024-01-11T09:42:07;100474.84;;;-3.37;87.54
77299;BME280;66361;52.034;20.656;2024-01-11T09:45:53;100480.00;;;-3.37;87.47
77299;BME280;66361;52.034;20.656;2024-01-11T09:49:38;100468.22;;;-3.23;87.74
77299;BME280;66361;52.034;20.656;2024-01-11T09:53:22;100465.22;;;-3.01;87.83
77299;BME280;66361;52.034;20.656;2024-01-11T09:57:10;100475.88;;;-2.84;87.15
77299;BME280;66361;52.034;20.656;2024-01-11T10:00:55;100462.78;;;-2.95;86.89
77299;BME280;66361;52.034;20.656;2024-01-11T10:04:42;100459.34;;;-2.94;87.06
77299;BME280;66361;52.034;20.656;2024-01-11T10:08:27;100448.19;;;-2.93;87.21
77299;BME280;66361;52.034;20.656;2024-01-11T10:12:12;100452.50;;;-2.92;87.46
77299;BME280;66361;52.034;20.656;2024-01-11T10:16:07;100447.41;;;-2.88;87.46
77299;BME280;66361;52.034;20.656;2024-01-11T10:19:53;100439.53;;;-2.96;87.73
77299;BME280;66361;52.034;20.656;2024-01-11T10:23:36;100429.09;;;-3.02;87.39
77299;BME280;66361;52.034;20.656;2024-01-11T10:27:27;100430.63;;;-3.12;87.53
77299;BME280;66361;52.034;20.656;2024-01-11T10:31:11;100404.03;;;-3.09;87.41
77299;BME280;66361;52.034;20.656;2024-01-11T10:34:55;100415.50;;;-2.92;87.07
77299;BME280;66361;52.034;20.656;2024-01-11T10:38:39;100414.91;;;-2.77;87.10
77299;BME280;66361;52.034;20.656;2024-01-11T10:42:28;100402.56;;;-2.44;87.42
77299;BME280;66361;52.034;20.656;2024-01-11T10:46:15;100405.22;;;-2.38;87.18
77299;BME280;66361;52.034;20.656;2024-01-11T10:50:01;100409.31;;;-2.50;86.68
77299;BME280;66361;52.034;20.656;2024-01-11T10:53:47;100425.53;;;-2.59;87.13
77299;BME280;66361;52.034;20.656;2024-01-11T10:57:35;100414.94;;;-2.76;86.77
77299;BME280;66361;52.034;20.656;2024-01-11T11:01:18;100420.84;;;-2.83;86.55
77299;BME280;66361;52.034;20.656;2024-01-11T11:05:05;100417.47;;;-2.77;86.58
77299;BME280;66361;52.034;20.656;2024-01-11T11:08:52;100422.09;;;-2.60;86.40
77299;BME280;66361;52.034;20.656;2024-01-11T11:12:38;100425.44;;;-2.64;86.65
77299;BME280;66361;52.034;20.656;2024-01-11T11:16:24;100413.38;;;-2.65;86.33
77299;BME280;66361;52.034;20.656;2024-01-11T11:20:09;100403.06;;;-2.65;86.56
77299;BME280;66361;52.034;20.656;2024-01-11T11:23:55;100391.91;;;-2.62;86.72
77299;BME280;66361;52.034;20.656;2024-01-11T11:27:41;100384.25;;;-2.56;87.21
77299;BME280;66361;52.034;20.656;2024-01-11T11:31:34;100374.94;;;-2.48;86.37
77299;BME280;66361;52.034;20.656;2024-01-11T11:35:19;100371.47;;;-2.48;86.43
77299;BME280;66361;52.034;20.656;2024-01-11T11:39:03;100357.66;;;-2.52;86.99
77299;BME280;66361;52.034;20.656;2024-01-11T11:42:48;100362.88;;;-2.47;86.53
77299;BME280;66361;52.034;20.656;2024-01-11T11:46:32;100352.56;;;-2.47;86.60
77299;BME280;66361;52.034;20.656;2024-01-11T11:50:16;100351.84;;;-2.37;86.54
77299;BME280;66361;52.034;20.656;2024-01-11T11:54:05;100360.34;;;-2.43;86.59
77299;BME280;66361;52.034;20.656;2024-01-11T11:57:51;100362.25;;;-2.33;86.33
77299;BME280;66361;52.034;20.656;2024-01-11T12:01:35;100353.56;;;-2.38;86.40
77299;BME280;66361;52.034;20.656;2024-01-11T12:05:19;100343.25;;;-2.35;86.58
77299;BME280;66361;52.034;20.656;2024-01-11T12:09:04;100346.66;;;-2.39;87.05
77299;BME280;66361;52.034;20.656;2024-01-11T12:12:48;100351.03;;;-2.33;86.95
77299;BME280;66361;52.034;20.656;2024-01-11T12:16:33;100342.53;;;-2.26;87.09
77299;BME280;66361;52.034;20.656;2024-01-11T12:20:17;100345.91;;;-2.29;86.68
77299;BME280;66361;52.034;20.656;2024-01-11T12:24:04;100340.78;;;-2.27;86.85
77299;BME280;66361;52.034;20.656;2024-01-11T12:27:49;100343.44;;;-2.24;86.79
77299;BME280;66361;52.034;20.656;2024-01-11T12:31:34;100340.91;;;-2.18;87.18
77299;BME280;66361;52.034;20.656;2024-01-11T12:35:18;100317.78;;;-2.09;86.79
77299;BME280;66361;52.034;20.656;2024-01-11T12:39:02;100329.16;;;-1.95;86.66
77299;BME280;66361;52.034;20.656;2024-01-11T12:42:49;100337.91;;;-1.82;86.25
77299;BME280;66361;52.034;20.656;2024-01-11T12:46:34;100334.50;;;-1.81;86.32
77299;BME280;66361;52.034;20.656;2024-01-11T12:50:18;100337.06;;;-1.83;86.52
77299;BME280;66361;52.034;20.656;2024-01-11T12:54:03;100341.31;;;-1.85;85.98
77299;BME280;66361;52.034;20.656;2024-01-11T12:57:48;100333.59;;;-1.86;86.43
77299;BME280;66361;52.034;20.656;2024-01-11T13:01:34;100338.84;;;-1.79;86.24
77299;BME280;66361;52.034;20.656;2024-01-11T13:05:18;100334.53;;;-1.78;86.22
77299;BME280;66361;52.034;20.656;2024-01-11T13:09:02;100339.69;;;-1.80;85.94
77299;BME280;66361;52.034;20.656;2024-01-11T13:12:47;100332.72;;;-1.87;86.21
77299;BME280;66361;52.034;20.656;2024-01-11T13:16:40;100341.25;;;-1.94;86.39
77299;BME280;66361;52.034;20.656;2024-01-11T13:20:24;100342.97;;;-1.91;86.58
77299;BME280;66361;52.034;20.656;2024-01-11T13:24:11;100330.16;;;-1.82;86.67
77299;BME280;66361;52.034;20.656;2024-01-11T13:27:55;100331.94;;;-1.80;87.11
77299;BME280;66361;52.034;20.656;2024-01-11T13:31:41;100323.34;;;-1.79;87.10
77299;BME280;66361;52.034;20.656;2024-01-11T13:35:28;100316.50;;;-1.72;86.79
77299;BME280;66361;52.034;20.656;2024-01-11T13:39:12;100309.63;;;-1.68;87.25
77299;BME280;66361;52.034;20.656;2024-01-11T13:42:56;100309.66;;;-1.67;87.36
77299;BME280;66361;52.034;20.656;2024-01-11T13:46:42;100285.59;;;-1.60;86.86
77299;BME280;66361;52.034;20.656;2024-01-11T13:50:26;100283.91;;;-1.58;87.31
77299;BME280;66361;52.034;20.656;2024-01-11T13:54:11;100276.16;;;-1.58;87.07
77299;BME280;66361;52.034;20.656;2024-01-11T13:57:55;100292.56;;;-1.56;87.32
77299;BME280;66361;52.034;20.656;2024-01-11T14:01:38;100291.69;;;-1.53;87.36
77299;BME280;66361;52.034;20.656;2024-01-11T14:05:24;100302.03;;;-1.55;87.12
77299;BME280;66361;52.034;20.656;2024-01-11T14:09:08;100278.78;;;-1.53;87.45
77299;BME280;66361;52.034;20.656;2024-01-11T14:12:52;100283.91;;;-1.55;87.32
77299;BME280;66361;52.034;20.656;2024-01-11T14:16:36;100281.34;;;-1.53;87.79
77299;BME280;66361;52.034;20.656;2024-01-11T14:20:21;100279.69;;;-1.50;87.99
77299;BME280;66361;52.034;20.656;2024-01-11T14:24:07;100278.81;;;-1.47;87.81
77299;BME280;66361;52.034;20.656;2024-01-11T14:27:52;100286.59;;;-1.46;87.93
77299;BME280;66361;52.034;20.656;2024-01-11T14:31:36;100279.75;;;-1.44;87.88
77299;BME280;66361;52.034;20.656;2024-01-11T14:35:21;100278.03;;;-1.43;87.83
77299;BME280;66361;52.034;20.656;2024-01-11T14:39:07;100290.09;;;-1.41;87.76
77299;BME280;66361;52.034;20.656;2024-01-11T14:42:52;100283.22;;;-1.39;87.99
77299;BME280;66361;52.034;20.656;2024-01-11T14:46:36;100296.16;;;-1.39;88.33
77299;BME280;66361;52.034;20.656;2024-01-11T14:50:20;100298.78;;;-1.36;88.19
77299;BME280;66361;52.034;20.656;2024-01-11T14:54:04;100306.53;;;-1.36;88.01
77299;BME280;66361;52.034;20.656;2024-01-11T14:57:49;100288.50;;;-1.29;88.24
77299;BME280;66361;52.034;20.656;2024-01-11T15:01:37;100287.56;;;-1.33;87.96
77299;BME280;66361;52.034;20.656;2024-01-11T15:05:21;100286.75;;;-1.30;88.13
77299;BME280;66361;52.034;20.656;2024-01-11T15:09:05;100284.16;;;-1.30;88.40
77299;BME280;66361;52.034;20.656;2024-01-11T15:12:53;100287.66;;;-1.27;88.52
77299;BME280;66361;52.034;20.656;2024-01-11T15:16:38;100294.53;;;-1.26;88.48
77299;BME280;66361;52.034;20.656;2024-01-11T15:20:22;100309.25;;;-1.22;88.55
77299;BME280;66361;52.034;20.656;2024-01-11T15:24:07;100317.91;;;-1.17;88.47
77299;BME280;66361;52.034;20.656;2024-01-11T15:27:53;100323.22;;;-1.02;88.66
77299;BME280;66361;52.034;20.656;2024-01-11T15:31:37;100317.16;;;-1.07;88.53
77299;BME280;66361;52.034;20.656;2024-01-11T15:35:23;100307.66;;;-1.06;88.39
77299;BME280;66361;52.034;20.656;2024-01-11T15:39:07;100306.81;;;-1.04;88.69
77299;BME280;66361;52.034;20.656;2024-01-11T15:43:09;100310.31;;;-0.97;88.71
77299;BME280;66361;52.034;20.656;2024-01-11T15:46:55;100307.78;;;-0.91;88.81
77299;BME280;66361;52.034;20.656;2024-01-11T15:50:39;100306.94;;;-0.87;88.83
77299;BME280;66361;52.034;20.656;2024-01-11T15:54:24;100315.59;;;-0.85;89.01
77299;BME280;66361;52.034;20.656;2024-01-11T15:58:10;100318.22;;;-0.80;89.13
77299;BME280;66361;52.034;20.656;2024-01-11T16:01:54;100339.78;;;-0.80;88.94
77299;BME280;66361;52.034;20.656;2024-01-11T16:05:48;100327.69;;;-0.81;88.97
77299;BME280;66361;52.034;20.656;2024-01-11T16:09:33;100326.84;;;-0.80;89.07
77299;BME280;66361;52.034;20.656;2024-01-11T16:13:18;100327.72;;;-0.79;89.08
77299;BME280;66361;52.034;20.656;2024-01-11T16:17:02;100325.16;;;-0.78;89.12
77299;BME280;66361;52.034;20.656;2024-01-11T16:20:46;100326.00;;;-0.79;89.29
77299;BME280;66361;52.034;20.656;2024-01-11T16:24:32;100319.13;;;-0.77;89.22
77299;BME280;66361;52.034;20.656;2024-01-11T16:28:17;100322.56;;;-0.76;89.19
77299;BME280;66361;52.034;20.656;2024-01-11T16:32:02;100325.16;;;-0.73;89.32
77299;BME280;66361;52.034;20.656;2024-01-11T16:35:50;100336.44;;;-0.70;89.22
77299;BME280;66361;52.034;20.656;2024-01-11T16:39:40;100333.00;;;-0.66;89.32
77299;BME280;66361;52.034;20.656;2024-01-11T16:43:26;100344.25;;;-0.64;89.45
77299;BME280;66361;52.034;20.656;2024-01-11T16:47:13;100347.72;;;-0.62;89.29
77299;BME280;66361;52.034;20.656;2024-01-11T16:50:59;100339.13;;;-0.56;89.41
77299;BME280;66361;52.034;20.656;2024-01-11T16:54:44;100337.44;;;-0.49;89.30
77299;BME280;66361;52.034;20.656;2024-01-11T16:58:31;100348.69;;;-0.44;89.17
77299;BME280;66361;52.034;20.656;2024-01-11T17:02:15;100335.75;;;-0.38;89.45
77299;BME280;66361;52.034;20.656;2024-01-11T17:06:00;100341.88;;;-0.29;89.36
77299;BME280;66361;52.034;20.656;2024-01-11T17:09:46;100340.19;;;-0.21;89.67
77299;BME280;66361;52.034;20.656;2024-01-11T17:13:32;100347.16;;;-0.12;89.98
77299;BME280;66361;52.034;20.656;2024-01-11T17:17:17;100344.63;;;-0.03;89.50
77299;BME280;66361;52.034;20.656;2024-01-11T17:21:02;100346.38;;;0.04;89.85
77299;BME280;66361;52.034;20.656;2024-01-11T17:24:46;100348.09;;;0.05;89.86
77299;BME280;66361;52.034;20.656;2024-01-11T17:28:34;100344.69;;;0.15;90.23
77299;BME280;66361;52.034;20.656;2024-01-11T17:32:19;100331.75;;;0.21;90.16
77299;BME280;66361;52.034;20.656;2024-01-11T17:36:04;100336.94;;;0.23;89.69
77299;BME280;66361;52.034;20.656;2024-01-11T17:39:48;100336.97;;;0.25;90.08
77299;BME280;66361;52.034;20.656;2024-01-11T17:43:34;100336.09;;;0.29;90.07
77299;BME280;66361;52.034;20.656;2024-01-11T17:47:18;100337.84;;;0.33;89.73
77299;BME280;66361;52.034;20.656;2024-01-11T17:51:03;100341.31;;;0.36;89.41
77299;BME280;66361;52.034;20.656;2024-01-11T17:54:47;100347.34;;;0.35;89.87
77299;BME280;66361;52.034;20.656;2024-01-11T17:58:31;100361.22;;;0.42;89.39
77299;BME280;66361;52.034;20.656;2024-01-11T18:02:16;100346.50;;;0.38;89.98
77299;BME280;66361;52.034;20.656;2024-01-11T18:06:01;100366.41;;;0.42;90.04
77299;BME280;66361;52.034;20.656;2024-01-11T18:09:45;100365.53;;;0.40;89.86
77299;BME280;66361;52.034;20.656;2024-01-11T18:13:32;100361.19;;;0.37;89.89
77299;BME280;66361;52.034;20.656;2024-01-11T18:17:20;100360.34;;;0.37;89.76
77299;BME280;66361;52.034;20.656;2024-01-11T18:21:04;100360.34;;;0.43;89.98
77299;BME280;66361;52.034;20.656;2024-01-11T18:24:48;100366.38;;;0.37;89.68
77299;BME280;66361;52.034;20.656;2024-01-11T18:28:32;100362.03;;;0.26;89.40
77299;BME280;66361;52.034;20.656;2024-01-11T18:32:16;100367.19;;;0.19;89.15
77299;BME280;66361;52.034;20.656;2024-01-11T18:36:02;100358.50;;;0.10;89.28
77299;BME280;66361;52.034;20.656;2024-01-11T18:39:47;100366.25;;;0.02;89.29
77299;BME280;66361;52.034;20.656;2024-01-11T18:43:31;100380.03;;;-0.05;89.63
77299;BME280;66361;52.034;20.656;2024-01-11T18:47:15;100379.97;;;-0.15;89.35
77299;BME280;66361;52.034;20.656;2024-01-11T18:51:03;100381.59;;;-0.34;89.81
77299;BME280;66361;52.034;20.656;2024-01-11T18:54:48;100391.97;;;-0.30;89.59
77299;BME280;66361;52.034;20.656;2024-01-11T18:58:42;100389.41;;;-0.24;89.89
77299;BME280;66361;52.034;20.656;2024-01-11T19:02:27;100383.41;;;-0.18;90.14
77299;BME280;66361;52.034;20.656;2024-01-11T19:06:12;100389.41;;;-0.22;89.62
77299;BME280;66361;52.034;20.656;2024-01-11T19:09:56;100389.47;;;-0.19;89.95
77299;BME280;66361;52.034;20.656;2024-01-11T19:13:41;100394.63;;;-0.19;89.65
77299;BME280;66361;52.034;20.656;2024-01-11T19:17:25;100398.13;;;-0.14;90.29
77299;BME280;66361;52.034;20.656;2024-01-11T19:21:09;100402.44;;;-0.13;89.82